sensor_id;sensor_type;location;lat;lon;timestamp;pressure;altitude;pressure_sealevel;temperature;humidity
47154;BME280;32907;41.412;2.164;2023-02-10T00:01:36;102499.59;;;16.68;34.10
47154;BME280;32907;41.412;2.164;2023-02-10T00:04:04;102567.25;;;17.06;34.56
47154;BME280;32907;41.412;2.164;2023-02-10T00:06:32;102514.16;;;16.74;34.27
47154;BME280;32907;41.412;2.164;2023-02-10T00:09:01;102558.97;;;17.01;34.60
47154;BME280;32907;41.412;2.164;2023-02-10T00:11:29;102561.22;;;17.04;34.72
47154;BME280;32907;41.412;2.164;2023-02-10T00:14:17;102539.44;;;16.93;34.34
47154;BME280;32907;41.412;2.164;2023-02-10T00:16:49;102533.41;;;16.91;33.93
47154;BME280;32907;41.412;2.164;2023-02-10T00:19:17;102553.13;;;16.98;34.15
47154;BME280;32907;41.412;2.164;2023-02-10T00:21:45;102558.78;;;16.96;34.02
47154;BME280;32907;41.412;2.164;2023-02-10T00:24:14;102522.28;;;16.74;34.19
47154;BME280;32907;41.412;2.164;2023-02-10T00:26:42;102466.53;;;16.28;34.19
47154;BME280;32907;41.412;2.164;2023-02-10T00:29:10;102503.59;;;16.59;34.57
47154;BME280;32907;41.412;2.164;2023-02-10T00:31:39;102470.22;;;16.40;34.32
47154;BME280;32907;41.412;2.164;2023-02-10T00:34:13;102476.22;;;16.42;34.29
47154;BME280;32907;41.412;2.164;2023-02-10T00:36:41;102482.47;;;16.43;34.24
47154;BME280;32907;41.412;2.164;2023-02-10T00:39:14;102490.28;;;16.58;33.97
47154;BME280;32907;41.412;2.164;2023-02-10T00:41:42;102542.56;;;16.90;34.35
47154;BME280;32907;41.412;2.164;2023-02-10T00:44:12;102542.16;;;16.93;34.38
47154;BME280;32907;41.412;2.164;2023-02-10T00:46:40;102438.88;;;16.26;34.20
47154;BME280;32907;41.412;2.164;2023-02-10T00:49:11;102485.47;;;16.60;33.83
47154;BME280;32907;41.412;2.164;2023-02-10T00:51:39;102468.91;;;16.49;33.81
47154;BME280;32907;41.412;2.164;2023-02-10T00:54:09;102532.84;;;16.82;33.95
47154;BME280;32907;41.412;2.164;2023-02-10T00:56:40;102528.66;;;16.86;33.82
47154;BME280;32907;41.412;2.164;2023-02-10T00:59:12;102493.78;;;16.65;33.73
47154;BME280;32907;41.412;2.164;2023-02-10T01:01:40;102548.81;;;16.90;33.72
47154;BME280;32907;41.412;2.164;2023-02-10T01:04:08;102502.97;;;16.64;33.94
47154;BME280;32907;41.412;2.164;2023-02-10T01:06:36;102490.75;;;16.55;33.56
47154;BME280;32907;41.412;2.164;2023-02-10T01:09:04;102444.69;;;16.30;33.67
47154;BME280;32907;41.412;2.164;2023-02-10T01:11:32;102458.19;;;16.36;33.96
47154;BME280;32907;41.412;2.164;2023-02-10T01:14:00;102546.13;;;16.90;33.46
47154;BME280;32907;41.412;2.164;2023-02-10T01:16:27;102542.47;;;16.78;33.50
47154;BME280;32907;41.412;2.164;2023-02-10T01:18:58;102543.03;;;16.87;33.38
47154;BME280;32907;41.412;2.164;2023-02-10T01:21:26;102528.69;;;16.80;33.58
47154;BME280;32907;41.412;2.164;2023-02-10T01:23:56;102467.72;;;16.39;33.17
47154;BME280;32907;41.412;2.164;2023-02-10T01:26:24;102524.16;;;16.73;33.54
47154;BME280;32907;41.412;2.164;2023-02-10T01:28:54;102555.56;;;16.81;33.66
47154;BME280;32907;41.412;2.164;2023-02-10T01:31:21;102522.13;;;16.69;34.01
47154;BME280;32907;41.412;2.164;2023-02-10T01:33:51;102518.56;;;16.68;33.39
47154;BME280;32907;41.412;2.164;2023-02-10T01:36:22;102509.25;;;16.58;33.26
47154;BME280;32907;41.412;2.164;2023-02-10T01:38:51;102544.19;;;16.72;32.98
47154;BME280;32907;41.412;2.164;2023-02-10T01:41:21;102533.94;;;16.74;33.39
47154;BME280;32907;41.412;2.164;2023-02-10T01:46:47;102517.22;;;16.53;32.93
47154;BME280;32907;41.412;2.164;2023-02-10T01:49:22;102481.13;;;16.27;33.06
47154;BME280;32907;41.412;2.164;2023-02-10T01:52:03;102539.03;;;16.58;33.00
47154;BME280;32907;41.412;2.164;2023-02-10T01:54:38;102516.22;;;16.47;32.98
47154;BME280;32907;41.412;2.164;2023-02-10T01:57:06;102524.72;;;16.50;32.96
47154;BME280;32907;41.412;2.164;2023-02-10T01:59:37;102544.03;;;16.61;32.97
47154;BME280;32907;41.412;2.164;2023-02-10T02:02:06;102548.41;;;16.62;33.14
47154;BME280;32907;41.412;2.164;2023-02-10T02:04:39;102547.75;;;16.60;33.21
47154;BME280;32907;41.412;2.164;2023-02-10T02:07:08;102475.38;;;16.17;33.29
47154;BME280;32907;41.412;2.164;2023-02-10T02:09:36;102475.38;;;16.17;33.78
47154;BME280;32907;41.412;2.164;2023-02-10T02:12:34;102522.25;;;16.42;33.13
47154;BME280;32907;41.412;2.164;2023-02-10T02:18:02;102551.31;;;16.60;33.06
47154;BME280;32907;41.412;2.164;2023-02-10T02:34:30;102547.66;;;16.48;33.51
47154;BME280;32907;41.412;2.164;2023-02-10T02:37:17;102549.53;;;16.47;33.62
47154;BME280;32907;41.412;2.164;2023-02-10T02:39:48;102547.19;;;16.51;33.68
47154;BME280;32907;41.412;2.164;2023-02-10T02:42:23;102558.03;;;16.51;33.74
47154;BME280;32907;41.412;2.164;2023-02-10T02:44:54;102553.44;;;16.51;33.89
47154;BME280;32907;41.412;2.164;2023-02-10T02:51:03;102546.41;;;16.44;33.20
47154;BME280;32907;41.412;2.164;2023-02-10T02:53:39;102545.19;;;16.40;33.57
47154;BME280;32907;41.412;2.164;2023-02-10T03:01:36;102467.00;;;15.87;33.92
47154;BME280;32907;41.412;2.164;2023-02-10T03:04:04;102470.72;;;15.92;33.72
47154;BME280;32907;41.412;2.164;2023-02-10T03:06:34;102507.63;;;16.18;33.59
47154;BME280;32907;41.412;2.164;2023-02-10T03:09:02;102479.88;;;15.98;33.28
47154;BME280;32907;41.412;2.164;2023-02-10T03:11:30;102487.13;;;16.04;33.71
47154;BME280;32907;41.412;2.164;2023-02-10T03:13:58;102534.00;;;16.36;33.48
47154;BME280;32907;41.412;2.164;2023-02-10T03:16:26;102511.78;;;16.21;33.48
47154;BME280;32907;41.412;2.164;2023-02-10T03:18:55;102531.50;;;16.28;33.64
47154;BME280;32907;41.412;2.164;2023-02-10T03:21:25;102517.81;;;16.23;34.13
47154;BME280;32907;41.412;2.164;2023-02-10T03:23:53;102455.31;;;15.93;34.13
47154;BME280;32907;41.412;2.164;2023-02-10T03:26:21;102467.72;;;16.07;33.80
47154;BME280;32907;41.412;2.164;2023-02-10T03:28:50;102435.16;;;15.89;33.22
47154;BME280;32907;41.412;2.164;2023-02-10T03:31:18;102475.66;;;16.02;33.34
47154;BME280;32907;41.412;2.164;2023-02-10T03:33:46;102475.44;;;16.04;33.79
47154;BME280;32907;41.412;2.164;2023-02-10T03:36:14;102517.38;;;16.26;33.59
47154;BME280;32907;41.412;2.164;2023-02-10T03:38:41;102505.91;;;16.31;33.70
47154;BME280;32907;41.412;2.164;2023-02-10T03:41:09;102442.63;;;15.93;33.52
47154;BME280;32907;41.412;2.164;2023-02-10T03:43:37;102491.63;;;16.17;33.72
47154;BME280;32907;41.412;2.164;2023-02-10T03:46:05;102493.72;;;16.15;33.71
47154;BME280;32907;41.412;2.164;2023-02-10T03:48:33;102474.28;;;15.86;33.68
47154;BME280;32907;41.412;2.164;2023-02-10T03:51:03;102450.56;;;15.88;33.78
47154;BME280;32907;41.412;2.164;2023-02-10T03:53:31;102491.63;;;16.17;33.55
47154;BME280;32907;41.412;2.164;2023-02-10T03:55:59;102483.50;;;16.17;34.00
47154;BME280;32907;41.412;2.164;2023-02-10T03:58:27;102453.03;;;15.97;33.35
47154;BME280;32907;41.412;2.164;2023-02-10T04:00:55;102513.34;;;16.35;33.47
47154;BME280;32907;41.412;2.164;2023-02-10T04:03:23;102492.84;;;16.21;33.69
47154;BME280;32907;41.412;2.164;2023-02-10T04:05:51;102431.91;;;15.80;33.90
47154;BME280;32907;41.412;2.164;2023-02-10T04:08:19;102498.66;;;16.25;33.79
47154;BME280;32907;41.412;2.164;2023-02-10T04:10:46;102504.88;;;16.25;33.72
47154;BME280;32907;41.412;2.164;2023-02-10T04:13:14;102520.66;;;16.35;33.96
47154;BME280;32907;41.412;2.164;2023-02-10T04:15:42;102518.59;;;16.30;33.72
47154;BME280;32907;41.412;2.164;2023-02-10T04:18:10;102501.22;;;16.13;33.39
47154;BME280;32907;41.412;2.164;2023-02-10T04:20:38;102512.22;;;16.18;33.31
47154;BME280;32907;41.412;2.164;2023-02-10T04:23:06;102506.84;;;16.11;33.75
47154;BME280;32907;41.412;2.164;2023-02-10T04:25:33;102518.06;;;16.15;34.01
47154;BME280;32907;41.412;2.164;2023-02-10T04:28:01;102506.25;;;16.03;33.70
47154;BME280;32907;41.412;2.164;2023-02-10T04:30:29;102453.59;;;15.67;33.93
47154;BME280;32907;41.412;2.164;2023-02-10T04:32:58;102422.22;;;15.46;33.87
47154;BME280;32907;41.412;2.164;2023-02-10T04:35:26;102537.84;;;16.15;33.95
47154;BME280;32907;41.412;2.164;2023-02-10T04:37:54;102524.94;;;16.11;33.89
47154;BME280;32907;41.412;2.164;2023-02-10T04:40:24;102543.22;;;16.22;33.98
47154;BME280;32907;41.412;2.164;2023-02-10T04:42:52;102534.91;;;16.17;34.26
47154;BME280;32907;41.412;2.164;2023-02-10T04:45:20;102546.53;;;16.24;34.29
47154;BME280;32907;41.412;2.164;2023-02-10T04:47:48;102539.47;;;16.23;34.02
47154;BME280;32907;41.412;2.164;2023-02-10T04:50:16;102491.16;;;15.88;34.44
47154;BME280;32907;41.412;2.164;2023-02-10T04:52:43;102453.16;;;15.63;34.48
47154;BME280;32907;41.412;2.164;2023-02-10T04:55:11;102478.53;;;15.69;34.04
47154;BME280;32907;41.412;2.164;2023-02-10T04:57:40;102484.72;;;15.83;34.17
47154;BME280;32907;41.412;2.164;2023-02-10T05:00:08;102532.00;;;16.12;34.61
47154;BME280;32907;41.412;2.164;2023-02-10T05:02:37;102431.59;;;15.44;34.55
47154;BME280;32907;41.412;2.164;2023-02-10T05:05:05;102542.44;;;16.15;34.40
47154;BME280;32907;41.412;2.164;2023-02-10T05:07:33;102388.81;;;15.34;34.21
47154;BME280;32907;41.412;2.164;2023-02-10T05:10:01;102542.16;;;16.30;34.11
47154;BME280;32907;41.412;2.164;2023-02-10T05:12:28;102511.88;;;16.08;34.33
47154;BME280;32907;41.412;2.164;2023-02-10T05:14:56;102494.19;;;16.05;34.35
47154;BME280;32907;41.412;2.164;2023-02-10T05:17:24;102535.47;;;16.32;33.92
47154;BME280;32907;41.412;2.164;2023-02-10T05:19:52;102535.91;;;16.29;34.13
47154;BME280;32907;41.412;2.164;2023-02-10T05:22:20;102519.69;;;16.22;34.12
47154;BME280;32907;41.412;2.164;2023-02-10T05:24:52;102542.94;;;16.37;33.87
47154;BME280;32907;41.412;2.164;2023-02-10T05:27:22;102467.63;;;15.89;34.26
47154;BME280;32907;41.412;2.164;2023-02-10T05:29:50;102485.06;;;16.00;34.32
47154;BME280;32907;41.412;2.164;2023-02-10T05:32:18;102497.09;;;16.04;34.53
47154;BME280;32907;41.412;2.164;2023-02-10T05:34:45;102533.38;;;16.28;34.39
47154;BME280;32907;41.412;2.164;2023-02-10T05:37:13;102506.19;;;16.16;34.33
47154;BME280;32907;41.412;2.164;2023-02-10T05:39:41;102551.41;;;16.47;34.78
47154;BME280;32907;41.412;2.164;2023-02-10T05:42:09;102539.56;;;16.41;35.08
47154;BME280;32907;41.412;2.164;2023-02-10T05:44:37;102506.16;;;16.22;35.30
47154;BME280;32907;41.412;2.164;2023-02-10T05:47:04;102534.50;;;16.51;35.25
47154;BME280;32907;41.412;2.164;2023-02-10T05:49:32;102511.09;;;16.32;34.77
47154;BME280;32907;41.412;2.164;2023-02-10T05:52:00;102566.72;;;16.60;35.20
47154;BME280;32907;41.412;2.164;2023-02-10T05:54:28;102572.38;;;16.58;35.44
47154;BME280;32907;41.412;2.164;2023-02-10T05:56:56;102563.88;;;16.55;35.19
47154;BME280;32907;41.412;2.164;2023-02-10T05:59:24;102578.59;;;16.59;34.97
47154;BME280;32907;41.412;2.164;2023-02-10T06:01:52;102571.13;;;16.61;34.97
47154;BME280;32907;41.412;2.164;2023-02-10T06:04:20;102503.22;;;16.24;34.73
47154;BME280;32907;41.412;2.164;2023-02-10T06:06:48;102553.91;;;16.48;35.16
47154;BME280;32907;41.412;2.164;2023-02-10T06:09:16;102573.41;;;16.57;35.49
47154;BME280;32907;41.412;2.164;2023-02-10T06:11:44;102581.72;;;16.62;35.65
47154;BME280;32907;41.412;2.164;2023-02-10T06:14:12;102516.75;;;16.24;35.56
47154;BME280;32907;41.412;2.164;2023-02-10T06:16:39;102509.84;;;16.28;35.35
47154;BME280;32907;41.412;2.164;2023-02-10T06:19:07;102573.81;;;16.61;34.92
47154;BME280;32907;41.412;2.164;2023-02-10T06:21:35;102580.28;;;16.60;35.41
47154;BME280;32907;41.412;2.164;2023-02-10T06:24:02;102518.66;;;16.23;36.66
47154;BME280;32907;41.412;2.164;2023-02-10T06:26:30;102557.47;;;16.42;38.03
47154;BME280;32907;41.412;2.164;2023-02-10T06:28:58;102494.75;;;16.14;38.05
47154;BME280;32907;41.412;2.164;2023-02-10T06:31:26;102550.31;;;16.55;38.12
47154;BME280;32907;41.412;2.164;2023-02-10T06:33:54;102555.13;;;16.53;38.16
47154;BME280;32907;41.412;2.164;2023-02-10T06:36:22;102568.78;;;16.64;38.93
47154;BME280;32907;41.412;2.164;2023-02-10T06:38:50;102574.59;;;16.68;37.92
47154;BME280;32907;41.412;2.164;2023-02-10T06:41:18;102542.69;;;16.45;37.76
47154;BME280;32907;41.412;2.164;2023-02-10T06:43:46;102563.25;;;16.53;38.01
47154;BME280;32907;41.412;2.164;2023-02-10T06:46:14;102588.59;;;16.65;38.02
47154;BME280;32907;41.412;2.164;2023-02-10T06:48:43;102601.66;;;16.74;37.68
47154;BME280;32907;41.412;2.164;2023-02-10T06:51:11;102601.66;;;16.74;37.59
47154;BME280;32907;41.412;2.164;2023-02-10T06:53:39;102553.06;;;16.48;36.99
47154;BME280;32907;41.412;2.164;2023-02-10T06:56:07;102593.94;;;16.78;37.29
47154;BME280;32907;41.412;2.164;2023-02-10T06:58:35;102576.31;;;16.69;37.01
47154;BME280;32907;41.412;2.164;2023-02-10T07:01:10;102510.50;;;16.30;37.55
47154;BME280;32907;41.412;2.164;2023-02-10T07:03:39;102579.41;;;16.72;37.33
47154;BME280;32907;41.412;2.164;2023-02-10T07:06:07;102566.47;;;16.68;37.57
47154;BME280;32907;41.412;2.164;2023-02-10T07:08:34;102596.53;;;16.91;37.35
47154;BME280;32907;41.412;2.164;2023-02-10T07:11:02;102606.00;;;16.82;36.78
47154;BME280;32907;41.412;2.164;2023-02-10T07:13:30;102597.31;;;16.73;36.75
47154;BME280;32907;41.412;2.164;2023-02-10T07:15:58;102588.59;;;16.65;37.83
47154;BME280;32907;41.412;2.164;2023-02-10T07:18:26;102528.19;;;16.26;39.14
47154;BME280;32907;41.412;2.164;2023-02-10T07:20:57;102562.25;;;16.47;38.05
47154;BME280;32907;41.412;2.164;2023-02-10T07:23:25;102593.16;;;16.64;37.74
47154;BME280;32907;41.412;2.164;2023-02-10T07:26:04;102576.69;;;16.66;37.19
47154;BME280;32907;41.412;2.164;2023-02-10T07:28:33;102580.69;;;16.63;37.58
47154;BME280;32907;41.412;2.164;2023-02-10T07:31:01;102570.72;;;16.57;36.94
47154;BME280;32907;41.412;2.164;2023-02-10T07:33:29;102617.06;;;16.81;36.45
47154;BME280;32907;41.412;2.164;2023-02-10T07:36:00;102620.81;;;16.80;36.75
47154;BME280;32907;41.412;2.164;2023-02-10T07:38:29;102582.41;;;16.51;36.33
47154;BME280;32907;41.412;2.164;2023-02-10T07:40:58;102597.56;;;16.59;36.70
47154;BME280;32907;41.412;2.164;2023-02-10T07:43:26;102642.47;;;16.86;36.40
47154;BME280;32907;41.412;2.164;2023-02-10T07:46:09;102644.91;;;16.94;37.01
47154;BME280;32907;41.412;2.164;2023-02-10T07:48:37;102606.25;;;16.74;37.16
47154;BME280;32907;41.412;2.164;2023-02-10T07:51:04;102594.19;;;16.76;37.11
47154;BME280;32907;41.412;2.164;2023-02-10T07:53:33;102631.97;;;16.96;37.04
47154;BME280;32907;41.412;2.164;2023-02-10T07:56:01;102638.63;;;17.00;36.87
47154;BME280;32907;41.412;2.164;2023-02-10T07:58:32;102644.97;;;17.13;36.98
47154;BME280;32907;41.412;2.164;2023-02-10T08:01:05;102649.78;;;17.11;36.70
47154;BME280;32907;41.412;2.164;2023-02-10T08:03:33;102596.22;;;16.81;36.94
47154;BME280;32907;41.412;2.164;2023-02-10T08:06:01;102626.81;;;16.88;36.83
47154;BME280;32907;41.412;2.164;2023-02-10T08:08:28;102590.84;;;16.74;37.06
47154;BME280;32907;41.412;2.164;2023-02-10T08:10:56;102563.06;;;16.47;37.95
47154;BME280;32907;41.412;2.164;2023-02-10T08:13:25;102664.00;;;17.06;37.06
47154;BME280;32907;41.412;2.164;2023-02-10T08:15:54;102587.38;;;16.61;37.13
47154;BME280;32907;41.412;2.164;2023-02-10T08:18:22;102613.53;;;16.80;36.94
47154;BME280;32907;41.412;2.164;2023-02-10T08:20:50;102604.16;;;16.76;37.06
47154;BME280;32907;41.412;2.164;2023-02-10T08:23:18;102637.75;;;17.00;36.82
47154;BME280;32907;41.412;2.164;2023-02-10T08:25:46;102599.97;;;16.80;37.20
47154;BME280;32907;41.412;2.164;2023-02-10T08:28:14;102675.56;;;17.20;37.59
47154;BME280;32907;41.412;2.164;2023-02-10T08:30:42;102593.38;;;16.69;37.59
47154;BME280;32907;41.412;2.164;2023-02-10T08:33:10;102676.84;;;17.17;36.80
47154;BME280;32907;41.412;2.164;2023-02-10T08:35:39;102681.00;;;17.20;36.82
47154;BME280;32907;41.412;2.164;2023-02-10T08:38:07;102684.31;;;17.22;36.63
47154;BME280;32907;41.412;2.164;2023-02-10T08:40:38;102690.97;;;17.26;36.53
47154;BME280;32907;41.412;2.164;2023-02-10T08:43:06;102644.91;;;16.94;36.63
47154;BME280;32907;41.412;2.164;2023-02-10T08:45:34;102670.81;;;17.15;36.75
47154;BME280;32907;41.412;2.164;2023-02-10T08:48:02;102618.22;;;16.91;36.45
47154;BME280;32907;41.412;2.164;2023-02-10T08:50:30;102595.00;;;16.77;36.74
47154;BME280;32907;41.412;2.164;2023-02-10T08:52:57;102683.63;;;17.33;37.32
47154;BME280;32907;41.412;2.164;2023-02-10T08:55:25;102671.81;;;17.21;37.41
47154;BME280;32907;41.412;2.164;2023-02-10T08:57:53;102658.53;;;17.13;37.44
47154;BME280;32907;41.412;2.164;2023-02-10T09:00:21;102702.94;;;17.43;37.13
47154;BME280;32907;41.412;2.164;2023-02-10T09:02:49;102684.28;;;17.28;37.08
47154;BME280;32907;41.412;2.164;2023-02-10T09:05:17;102675.50;;;17.33;36.83
47154;BME280;32907;41.412;2.164;2023-02-10T09:07:49;102675.13;;;17.23;36.91
47154;BME280;32907;41.412;2.164;2023-02-10T09:10:17;102670.13;;;17.26;37.09
47154;BME280;32907;41.412;2.164;2023-02-10T09:12:45;102655.47;;;17.02;36.41
47154;BME280;32907;41.412;2.164;2023-02-10T09:15:13;102688.47;;;17.24;36.63
47154;BME280;32907;41.412;2.164;2023-02-10T09:17:41;102713.00;;;17.36;36.94
47154;BME280;32907;41.412;2.164;2023-02-10T09:20:10;102653.19;;;16.99;36.20
47154;BME280;32907;41.412;2.164;2023-02-10T09:22:39;102648.59;;;17.00;36.51
47154;BME280;32907;41.412;2.164;2023-02-10T09:25:06;102708.44;;;17.30;36.58
47154;BME280;32907;41.412;2.164;2023-02-10T09:27:35;102671.03;;;17.14;37.15
47154;BME280;32907;41.412;2.164;2023-02-10T09:30:02;102667.75;;;17.05;37.36
47154;BME280;32907;41.412;2.164;2023-02-10T09:32:30;102576.16;;;16.50;37.17
47154;BME280;32907;41.412;2.164;2023-02-10T09:34:58;102683.47;;;17.21;38.06
47154;BME280;32907;41.412;2.164;2023-02-10T09:37:26;102681.03;;;17.13;37.33
47154;BME280;32907;41.412;2.164;2023-02-10T09:39:54;102635.38;;;16.85;37.08
47154;BME280;32907;41.412;2.164;2023-02-10T09:42:26;102712.53;;;17.39;37.66
47154;BME280;32907;41.412;2.164;2023-02-10T09:45:03;102687.72;;;17.42;38.96
47154;BME280;32907;41.412;2.164;2023-02-10T09:47:49;102710.00;;;17.69;40.15
47154;BME280;32907;41.412;2.164;2023-02-10T09:50:33;102711.06;;;17.93;43.08
47154;BME280;32907;41.412;2.164;2023-02-10T09:55:45;102712.13;;;17.92;36.62
47154;BME280;32907;41.412;2.164;2023-02-10T09:58:38;102715.97;;;17.84;36.32
47154;BME280;32907;41.412;2.164;2023-02-10T10:03:54;102716.84;;;17.78;35.96
47154;BME280;32907;41.412;2.164;2023-02-10T10:06:32;102703.16;;;17.67;36.31
47154;BME280;32907;41.412;2.164;2023-02-10T10:14:19;102608.44;;;17.15;36.47
47154;BME280;32907;41.412;2.164;2023-02-10T10:20:28;102682.34;;;17.60;36.26
47154;BME280;32907;41.412;2.164;2023-02-10T10:22:46;102606.78;;;17.14;36.34
47154;BME280;32907;41.412;2.164;2023-02-10T10:31:10;102674.59;;;17.39;35.71
47154;BME280;32907;41.412;2.164;2023-02-10T10:36:46;102680.78;;;17.46;35.25
47154;BME280;32907;41.412;2.164;2023-02-10T10:42:05;102681.59;;;17.47;36.27
47154;BME280;32907;41.412;2.164;2023-02-10T10:44:38;102720.66;;;17.71;36.19
47154;BME280;32907;41.412;2.164;2023-02-10T10:47:40;102684.50;;;17.52;36.21
47154;BME280;32907;41.412;2.164;2023-02-10T10:50:16;102714.59;;;17.75;36.36
47154;BME280;32907;41.412;2.164;2023-02-10T10:52:46;102682.69;;;17.71;41.82
47154;BME280;32907;41.412;2.164;2023-02-10T10:58:11;102677.13;;;17.84;38.87
47154;BME280;32907;41.412;2.164;2023-02-10T11:00:52;102643.47;;;17.67;39.39
47154;BME280;32907;41.412;2.164;2023-02-10T11:03:22;102704.47;;;18.07;39.46
47154;BME280;32907;41.412;2.164;2023-02-10T11:06:06;102655.38;;;17.91;39.34
47154;BME280;32907;41.412;2.164;2023-02-10T11:08:51;102696.25;;;18.14;36.85
47154;BME280;32907;41.412;2.164;2023-02-10T11:11:34;102673.59;;;18.02;36.65
47154;BME280;32907;41.412;2.164;2023-02-10T11:14:17;102674.72;;;18.12;35.70
47154;BME280;32907;41.412;2.164;2023-02-10T11:16:49;102678.97;;;18.08;36.00
47154;BME280;32907;41.412;2.164;2023-02-10T11:19:25;102665.91;;;17.99;35.92
47154;BME280;32907;41.412;2.164;2023-02-10T11:21:57;102665.97;;;18.10;35.91
47154;BME280;32907;41.412;2.164;2023-02-10T11:24:26;102662.22;;;18.11;35.90
47154;BME280;32907;41.412;2.164;2023-02-10T11:29:30;102665.56;;;18.13;36.53
47154;BME280;32907;41.412;2.164;2023-02-10T11:31:58;102635.75;;;18.07;35.61
47154;BME280;32907;41.412;2.164;2023-02-10T11:36:56;102551.34;;;17.53;36.18
47154;BME280;32907;41.412;2.164;2023-02-10T11:39:38;102646.38;;;18.08;35.94
47154;BME280;32907;41.412;2.164;2023-02-10T11:42:10;102635.75;;;18.07;36.11
47154;BME280;32907;41.412;2.164;2023-02-10T11:44:38;102638.69;;;18.05;35.81
47154;BME280;32907;41.412;2.164;2023-02-10T11:47:15;102604.22;;;17.87;34.75
47154;BME280;32907;41.412;2.164;2023-02-10T11:49:48;102606.28;;;17.92;34.85
47154;BME280;32907;41.412;2.164;2023-02-10T11:52:19;102603.09;;;17.95;34.87
47154;BME280;32907;41.412;2.164;2023-02-10T11:54:51;102623.84;;;18.08;34.97
47154;BME280;32907;41.412;2.164;2023-02-10T12:08:36;102586.69;;;18.20;37.07
47154;BME280;32907;41.412;2.164;2023-02-10T12:11:42;102596.41;;;18.28;35.58
47154;BME280;32907;41.412;2.164;2023-02-10T12:17:33;102587.69;;;18.26;34.85
47154;BME280;32907;41.412;2.164;2023-02-10T12:20:25;102592.53;;;18.24;35.23
47154;BME280;32907;41.412;2.164;2023-02-10T12:26:10;102525.63;;;17.81;34.77
47154;BME280;32907;41.412;2.164;2023-02-10T12:29:28;102582.81;;;18.16;33.89
47154;BME280;32907;41.412;2.164;2023-02-10T12:32:26;102506.59;;;17.62;33.49
47154;BME280;32907;41.412;2.164;2023-02-10T12:35:15;102479.94;;;17.41;34.02
47154;BME280;32907;41.412;2.164;2023-02-10T12:46:12;102568.78;;;18.01;34.94
47154;BME280;32907;41.412;2.164;2023-02-10T12:51:59;102561.25;;;18.03;34.82
47154;BME280;32907;41.412;2.164;2023-02-10T12:54:50;102563.72;;;18.04;34.60
47154;BME280;32907;41.412;2.164;2023-02-10T12:57:28;102530.81;;;17.82;34.25
47154;BME280;32907;41.412;2.164;2023-02-10T13:00:07;102454.31;;;17.37;34.36
47154;BME280;32907;41.412;2.164;2023-02-10T13:02:54;102244.25;;;16.00;34.24
47154;BME280;32907;41.412;2.164;2023-02-10T13:05:37;102541.81;;;17.87;33.88
47154;BME280;32907;41.412;2.164;2023-02-10T13:08:11;102544.22;;;17.96;34.31
47154;BME280;32907;41.412;2.164;2023-02-10T13:11:07;102521.38;;;17.85;34.33
47154;BME280;32907;41.412;2.164;2023-02-10T13:13:45;102282.56;;;16.40;34.34
47154;BME280;32907;41.412;2.164;2023-02-10T13:16:25;102542.84;;;18.05;34.65
47154;BME280;32907;41.412;2.164;2023-02-10T13:22:02;102502.22;;;17.80;34.71
47154;BME280;32907;41.412;2.164;2023-02-10T13:24:57;102292.66;;;16.51;35.24
47154;BME280;32907;41.412;2.164;2023-02-10T13:33:09;102527.59;;;18.04;35.04
47154;BME280;32907;41.412;2.164;2023-02-10T13:35:55;102537.63;;;18.03;34.78
47154;BME280;32907;41.412;2.164;2023-02-10T13:38:31;102449.50;;;17.57;34.75
47154;BME280;32907;41.412;2.164;2023-02-10T13:41:01;102430.91;;;17.43;34.87
47154;BME280;32907;41.412;2.164;2023-02-10T13:43:57;102505.09;;;17.85;34.53
47154;BME280;32907;41.412;2.164;2023-02-10T13:46:30;102509.03;;;17.89;35.14
47154;BME280;32907;41.412;2.164;2023-02-10T13:49:02;102474.50;;;17.59;35.19
47154;BME280;32907;41.412;2.164;2023-02-10T13:51:37;102483.13;;;17.75;35.24
47154;BME280;32907;41.412;2.164;2023-02-10T13:54:24;102372.03;;;16.95;35.16
47154;BME280;32907;41.412;2.164;2023-02-10T13:56:56;102494.72;;;17.82;34.87
47154;BME280;32907;41.412;2.164;2023-02-10T13:59:35;102518.50;;;17.98;34.82
47154;BME280;32907;41.412;2.164;2023-02-10T14:02:21;102515.56;;;18.00;34.83
47154;BME280;32907;41.412;2.164;2023-02-10T14:07:54;102213.34;;;16.07;34.44
47154;BME280;32907;41.412;2.164;2023-02-10T14:10:38;102512.94;;;17.93;34.96
47154;BME280;32907;41.412;2.164;2023-02-10T14:13:27;102498.03;;;17.84;34.81
47154;BME280;32907;41.412;2.164;2023-02-10T14:16:35;102506.66;;;17.93;35.25
47154;BME280;32907;41.412;2.164;2023-02-10T14:19:36;102511.03;;;17.94;35.24
47154;BME280;32907;41.412;2.164;2023-02-10T14:25:54;102505.84;;;17.92;36.07
47154;BME280;32907;41.412;2.164;2023-02-10T14:28:06;102014.59;;;14.87;35.67
47154;BME280;32907;41.412;2.164;2023-02-10T14:30:51;102008.22;;;14.74;35.84
47154;BME280;32907;41.412;2.164;2023-02-10T14:33:26;102507.03;;;17.96;35.75
47154;BME280;32907;41.412;2.164;2023-02-10T14:36:23;102282.50;;;16.65;35.48
47154;BME280;32907;41.412;2.164;2023-02-10T14:39:00;102501.41;;;17.98;35.82
47154;BME280;32907;41.412;2.164;2023-02-10T14:41:31;102475.81;;;17.75;35.65
47154;BME280;32907;41.412;2.164;2023-02-10T14:44:14;102511.78;;;18.01;36.21
47154;BME280;32907;41.412;2.164;2023-02-10T14:46:51;102374.34;;;17.28;35.84
47154;BME280;32907;41.412;2.164;2023-02-10T14:49:30;102336.34;;;16.80;35.95
47154;BME280;32907;41.412;2.164;2023-02-10T14:52:16;102495.84;;;18.04;35.92
47154;BME280;32907;41.412;2.164;2023-02-10T14:55:24;102484.41;;;18.02;36.27
47154;BME280;32907;41.412;2.164;2023-02-10T14:58:09;102385.22;;;17.40;36.01
47154;BME280;32907;41.412;2.164;2023-02-10T15:01:04;102485.22;;;18.03;35.95
47154;BME280;32907;41.412;2.164;2023-02-10T15:03:46;102234.38;;;16.48;36.02